sensor_id;sensor_type;location;lat;lon;timestamp;temperature;humidity
43862;DHT22;29510;52.140;5.034;2024-01-11T00:01:20;-2.20;1.00
43862;DHT22;29510;52.140;5.034;2024-01-11T00:11:20;-2.20;1.00
43862;DHT22;29510;52.140;5.034;2024-01-11T00:21:21;-2.30;1.00
43862;DHT22;29510;52.140;5.034;2024-01-11T00:31:21;-2.50;1.00
43862;DHT22;29510;52.140;5.034;2024-01-11T00:41:22;-2.50;1.00
43862;DHT22;29510;52.140;5.034;2024-01-11T00:51:23;-2.50;1.00
43862;DHT22;29510;52.140;5.034;2024-01-11T01:01:24;-2.60;1.00
43862;DHT22;29510;52.140;5.034;2024-01-11T01:11:24;-2.60;1.00
43862;DHT22;29510;52.140;5.034;2024-01-11T01:21:25;-2.60;1.00
43862;DHT22;29510;52.140;5.034;2024-01-11T01:31:25;-2.80;1.00
43862;DHT22;29510;52.140;5.034;2024-01-11T01:41:26;-2.90;1.00
43862;DHT22;29510;52.140;5.034;2024-01-11T01:51:29;-2.80;1.00
43862;DHT22;29510;52.140;5.034;2024-01-11T02:01:30;-2.90;1.00
43862;DHT22;29510;52.140;5.034;2024-01-11T02:11:31;-3.00;1.00
43862;DHT22;29510;52.140;5.034;2024-01-11T02:21:32;-3.00;1.00
43862;DHT22;29510;52.140;5.034;2024-01-11T02:31:33;-3.10;1.00
43862;DHT22;29510;52.140;5.034;2024-01-11T02:41:34;-3.10;1.00
43862;DHT22;29510;52.140;5.034;2024-01-11T02:51:35;-3.20;1.00
43862;DHT22;29510;52.140;5.034;2024-01-11T03:01:36;-3.30;1.00
43862;DHT22;29510;52.140;5.034;2024-01-11T03:11:37;-3.40;1.00
43862;DHT22;29510;52.140;5.034;2024-01-11T03:21:44;-3.50;1.00
43862;DHT22;29510;52.140;5.034;2024-01-11T03:31:44;-3.50;1.00
43862;DHT22;29510;52.140;5.034;2024-01-11T03:41:45;-3.60;1.00
43862;DHT22;29510;52.140;5.034;2024-01-11T03:51:46;-3.40;1.00
43862;DHT22;29510;52.140;5.034;2024-01-11T04:01:46;-3.40;1.00
43862;DHT22;29510;52.140;5.034;2024-01-11T04:11:47;-3.40;1.00
43862;DHT22;29510;52.140;5.034;2024-01-11T04:21:47;-3.40;1.00
43862;DHT22;29510;52.140;5.034;2024-01-11T04:31:48;-3.40;1.00
43862;DHT22;29510;52.140;5.034;2024-01-11T04:41:49;-3.30;1.00
43862;DHT22;29510;52.140;5.034;2024-01-11T04:51:49;-3.30;1.00
43862;DHT22;29510;52.140;5.034;2024-01-11T05:01:50;-3.30;1.00
43862;DHT22;29510;52.140;5.034;2024-01-11T05:11:51;-3.40;1.00
43862;DHT22;29510;52.140;5.034;2024-01-11T05:21:51;-3.50;1.00
43862;DHT22;29510;52.140;5.034;2024-01-11T05:31:52;-3.50;1.00
43862;DHT22;29510;52.140;5.034;2024-01-11T05:41:52;-3.50;1.00
43862;DHT22;29510;52.140;5.034;2024-01-11T05:51:53;-3.60;1.00
43862;DHT22;29510;52.140;5.034;2024-01-11T06:01:54;-3.70;1.00
43862;DHT22;29510;52.140;5.034;2024-01-11T06:11:54;-3.80;1.00
43862;DHT22;29510;52.140;5.034;2024-01-11T06:21:55;-3.90;1.00
43862;DHT22;29510;52.140;5.034;2024-01-11T06:31:56;-4.00;1.00
43862;DHT22;29510;52.140;5.034;2024-01-11T06:41:56;-4.00;1.00
43862;DHT22;29510;52.140;5.034;2024-01-11T06:51:57;-4.00;1.00
43862;DHT22;29510;52.140;5.034;2024-01-11T07:01:57;-3.80;1.00
43862;DHT22;29510;52.140;5.034;2024-01-11T07:11:58;-3.80;1.00
43862;DHT22;29510;52.140;5.034;2024-01-11T07:21:59;-3.80;1.00
43862;DHT22;29510;52.140;5.034;2024-01-11T07:32:00;-3.80;1.00
43862;DHT22;29510;52.140;5.034;2024-01-11T07:42:01;-3.70;1.00
43862;DHT22;29510;52.140;5.034;2024-01-11T07:52:02;-3.60;1.00
43862;DHT22;29510;52.140;5.034;2024-01-11T08:02:02;-3.70;1.00
43862;DHT22;29510;52.140;5.034;2024-01-11T08:12:04;-3.70;1.00
43862;DHT22;29510;52.140;5.034;2024-01-11T08:22:05;-3.80;1.00
43862;DHT22;29510;52.140;5.034;2024-01-11T08:32:06;-3.70;1.00
43862;DHT22;29510;52.140;5.034;2024-01-11T08:42:07;-3.60;1.00
43862;DHT22;29510;52.140;5.034;2024-01-11T08:52:08;-3.60;1.00
43862;DHT22;29510;52.140;5.034;2024-01-11T09:02:08;-3.50;1.00
43862;DHT22;29510;52.140;5.034;2024-01-11T09:12:09;-3.30;1.00
43862;DHT22;29510;52.140;5.034;2024-01-11T09:22:10;-3.00;1.00
43862;DHT22;29510;52.140;5.034;2024-01-11T09:32:11;-2.50;1.00
43862;DHT22;29510;52.140;5.034;2024-01-11T09:42:12;-2.00;1.00
43862;DHT22;29510;52.140;5.034;2024-01-11T09:52:15;-1.90;1.00
43862;DHT22;29510;52.140;5.034;2024-01-11T10:02:17;-1.70;1.00
43862;DHT22;29510;52.140;5.034;2024-01-11T10:12:18;-1.60;1.00
43862;DHT22;29510;52.140;5.034;2024-01-11T10:22:20;-1.50;1.00
43862;DHT22;29510;52.140;5.034;2024-01-11T10:32:21;-1.40;1.00
43862;DHT22;29510;52.140;5.034;2024-01-11T10:42:24;-1.30;1.00
43862;DHT22;29510;52.140;5.034;2024-01-11T10:52:31;-1.10;4.90
43862;DHT22;29510;52.140;5.034;2024-01-11T11:02:35;-0.80;10.50
43862;DHT22;29510;52.140;5.034;2024-01-11T11:12:37;-0.80;15.10
43862;DHT22;29510;52.140;5.034;2024-01-11T11:22:40;-0.60;21.70
43862;DHT22;29510;52.140;5.034;2024-01-11T11:32:45;-0.60;26.30
43862;DHT22;29510;52.140;5.034;2024-01-11T11:42:46;-0.50;31.60
43862;DHT22;29510;52.140;5.034;2024-01-11T11:52:54;-0.30;38.20
43862;DHT22;29510;52.140;5.034;2024-01-11T12:02:57;-0.10;48.90
43862;DHT22;29510;52.140;5.034;2024-01-11T12:12:58;0.10;45.00
43862;DHT22;29510;52.140;5.034;2024-01-11T12:23:01;0.30;51.20
43862;DHT22;29510;52.140;5.034;2024-01-11T12:33:03;0.80;33.10
43862;DHT22;29510;52.140;5.034;2024-01-11T12:43:05;0.70;32.20
43862;DHT22;29510;52.140;5.034;2024-01-11T12:53:15;0.80;38.50
43862;DHT22;29510;52.140;5.034;2024-01-11T13:03:19;0.90;30.60
43862;DHT22;29510;52.140;5.034;2024-01-11T13:13:21;1.10;30.60
43862;DHT22;29510;52.140;5.034;2024-01-11T13:23:21;1.30;22.80
43862;DHT22;29510;52.140;5.034;2024-01-11T13:33:23;1.40;26.70
43862;DHT22;29510;52.140;5.034;2024-01-11T13:43:24;1.40;27.10
43862;DHT22;29510;52.140;5.034;2024-01-11T13:53:24;1.70;22.80
43862;DHT22;29510;52.140;5.034;2024-01-11T14:03:25;1.80;19.40
43862;DHT22;29510;52.140;5.034;2024-01-11T14:13:25;1.90;14.80
43862;DHT22;29510;52.140;5.034;2024-01-11T14:23:26;1.80;13.70
43862;DHT22;29510;52.140;5.034;2024-01-11T14:33:27;1.80;14.90
43862;DHT22;29510;52.140;5.034;2024-01-11T14:43:28;2.00;13.60
43862;DHT22;29510;52.140;5.034;2024-01-11T14:53:29;2.00;8.90
43862;DHT22;29510;52.140;5.034;2024-01-11T15:03:30;1.80;15.30
43862;DHT22;29510;52.140;5.034;2024-01-11T15:13:32;1.80;19.30
43862;DHT22;29510;52.140;5.034;2024-01-11T15:23:34;1.70;24.80
43862;DHT22;29510;52.140;5.034;2024-01-11T15:33:37;1.70;28.60
43862;DHT22;29510;52.140;5.034;2024-01-11T15:43:39;1.70;38.90
43862;DHT22;29510;52.140;5.034;2024-01-11T15:53:39;1.80;48.70
43862;DHT22;29510;52.140;5.034;2024-01-11T16:03:41;1.70;55.00
43862;DHT22;29510;52.140;5.034;2024-01-11T16:13:43;1.70;62.30
43862;DHT22;29510;52.140;5.034;2024-01-11T16:23:46;1.70;68.40
43862;DHT22;29510;52.140;5.034;2024-01-11T16:33:47;1.70;77.00
43862;DHT22;29510;52.140;5.034;2024-01-11T16:43:47;1.60;83.10
43862;DHT22;29510;52.140;5.034;2024-01-11T16:53:48;1.60;89.20
43862;DHT22;29510;52.140;5.034;2024-01-11T17:03:48;1.60;94.90
43862;DHT22;29510;52.140;5.034;2024-01-11T17:13:49;1.60;98.70
43862;DHT22;29510;52.140;5.034;2024-01-11T17:23:49;1.80;99.90
43862;DHT22;29510;52.140;5.034;2024-01-11T17:33:50;1.80;99.90
43862;DHT22;29510;52.140;5.034;2024-01-11T17:43:52;1.80;96.80
43862;DHT22;29510;52.140;5.034;2024-01-11T17:53:53;1.90;99.60
43862;DHT22;29510;52.140;5.034;2024-01-11T18:03:53;1.70;99.90
43862;DHT22;29510;52.140;5.034;2024-01-11T18:13:54;1.80;99.90
43862;DHT22;29510;52.140;5.034;2024-01-11T18:23:55;1.80;99.90
43862;DHT22;29510;52.140;5.034;2024-01-11T18:33:56;1.80;99.90
43862;DHT22;29510;52.140;5.034;2024-01-11T18:43:56;1.80;99.90
43862;DHT22;29510;52.140;5.034;2024-01-11T18:53:57;1.80;99.90
43862;DHT22;29510;52.140;5.034;2024-01-11T19:03:58;1.90;99.90
43862;DHT22;29510;52.140;5.034;2024-01-11T19:13:58;1.90;99.90
43862;DHT22;29510;52.140;5.034;2024-01-11T19:23:59;1.90;99.90
43862;DHT22;29510;52.140;5.034;2024-01-11T19:34:01;2.00;99.90
43862;DHT22;29510;52.140;5.034;2024-01-11T19:44:02;2.10;99.90
43862;DHT22;29510;52.140;5.034;2024-01-11T19:54:02;2.20;99.90
43862;DHT22;29510;52.140;5.034;2024-01-11T20:04:03;2.60;99.90
43862;DHT22;29510;52.140;5.034;2024-01-11T20:14:04;2.90;99.90
43862;DHT22;29510;52.140;5.034;2024-01-11T20:24:07;3.10;99.90
43862;DHT22;29510;52.140;5.034;2024-01-11T20:34:08;3.20;99.90
43862;DHT22;29510;52.140;5.034;2024-01-11T20:44:13;3.30;99.90
43862;DHT22;29510;52.140;5.034;2024-01-11T20:54:15;3.30;99.90
43862;DHT22;29510;52.140;5.034;2024-01-11T21:04:16;3.40;99.90
43862;DHT22;29510;52.140;5.034;2024-01-11T21:14:17;3.40;99.90
43862;DHT22;29510;52.140;5.034;2024-01-11T21:24:18;3.40;99.90
43862;DHT22;29510;52.140;5.034;2024-01-11T21:34:20;3.40;99.90
43862;DHT22;29510;52.140;5.034;2024-01-11T21:44:21;3.40;99.90
43862;DHT22;29510;52.140;5.034;2024-01-11T21:54:21;3.30;99.90
43862;DHT22;29510;52.140;5.034;2024-01-11T22:04:23;3.40;99.90
43862;DHT22;29510;52.140;5.034;2024-01-11T22:14:24;3.30;99.90
43862;DHT22;29510;52.140;5.034;2024-01-11T22:24:24;3.30;99.90
43862;DHT22;29510;52.140;5.034;2024-01-11T22:34:25;3.40;99.90
43862;DHT22;29510;52.140;5.034;2024-01-11T22:44:25;3.50;99.90
43862;DHT22;29510;52.140;5.034;2024-01-11T22:54:26;3.40;99.90
43862;DHT22;29510;52.140;5.034;2024-01-11T23:04:27;3.40;99.90
43862;DHT22;29510;52.140;5.034;2024-01-11T23:14:27;3.40;99.90
43862;DHT22;29510;52.140;5.034;2024-01-11T23:24:28;3.40;99.90
43862;DHT22;29510;52.140;5.034;2024-01-11T23:34:29;3.30;99.90
43862;DHT22;29510;52.140;5.034;2024-01-11T23:44:29;3.30;99.90
43862;DHT22;29510;52.140;5.034;2024-01-11T23:54:30;3.20;99.90
